Latest Weather Observations for Launceston Airport

IDT60801

Issued at 4:31 pm EST Thursday 5 May 2016 (issued every 30 minutes, with the page automatically refreshed every 10 minutes)

About weather observations | Map of weather stations | Latest weather observations for TAS | Other Formats
Station Details ID: 091311 Name: LAUNCESTON AIRPORT Lat: -41.55 Lon: 147.21 Height: 166.9 m
Data from the previous 72 hours. | See also: Recent months at Launceston Airport
Date/Time
EST
Temp
°C
App
Temp
°C
Dew
Point
Rel
Hum
%
Delta-T
°C
Wind Press
QNH
hPa
Press
MSL
hPa
Rain
since 9 am
mm
Dir
 
Spd
km/h
Gust
km/h
Spd
kts
Gust
kts
05/04:30pm 14.4 6.5 10.8 79 1.9 NNW 43 57 23 31 1008.5 1008.7 1.0
05/04:13pm 14.4 6.9 10.8 79 1.9 NNW 41 59 22 32 1008.4 1008.6 1.0
05/04:00pm 14.4 6.9 11.0 80 1.8 NNW 41 56 22 30 1008.4 1008.6 1.0
05/03:30pm 14.3 8.1 11.3 82 1.6 NNW 35 57 19 31 1008.6 1008.8 1.0
05/03:23pm 14.4 7.8 11.2 81 1.7 NNW 37 57 20 31 1008.6 1008.8 1.0
05/03:00pm 14.0 7.8 11.3 84 1.4 NNW 35 48 19 26 1008.8 1009.0 1.0
05/02:30pm 14.3 7.3 11.3 82 1.6 NNW 39 46 21 25 1008.8 1009.0 1.0
05/02:00pm 13.9 8.1 11.6 86 1.2 N 33 44 18 24 1008.9 1009.1 1.0
05/01:42pm 13.8 8.1 11.7 87 1.1 N 33 43 18 23 1009.0 1009.2 1.0
05/01:30pm 13.7 8.0 11.9 89 1.0 N 33 43 18 23 1009.1 1009.3 1.0
05/01:00pm 13.2 6.9 12.3 94 0.5 NNW 37 48 20 26 1009.4 1009.6 0.8
05/12:30pm 13.3 8.0 12.5 95 0.4 NNW 32 43 17 23 1009.9 1010.1 0.4
05/12:00pm 13.5 7.9 12.1 91 0.8 N 33 46 18 25 1010.4 1010.6 0.2
05/11:58am 13.5 7.5 12.1 91 0.8 NNW 35 46 19 25 1010.4 1010.6 0.2
05/11:36am 13.8 7.3 11.7 87 1.1 NNW 37 48 20 26 1010.6 1010.8 0.2
05/11:30am 13.8 6.6 11.8 88 1.1 NNW 41 52 22 28 1010.7 1010.9 0.2
05/11:26am 13.8 6.6 11.8 88 1.1 NNW 41 52 22 28 1010.8 1011.0 0.2
05/11:12am 13.9 6.7 11.8 87 1.1 NNW 41 57 22 31 1011.0 1011.2 0.2
05/11:08am 13.9 7.1 11.8 87 1.1 NNW 39 57 21 31 1011.0 1011.2 0.2
05/11:01am 13.9 8.4 12.3 90 0.9 N 33 46 18 25 1011.1 1011.3 0.2
05/11:00am 13.9 8.4 12.5 91 0.8 N 33 46 18 25 1011.1 1011.3 0.2
05/10:54am 13.7 8.2 12.3 91 0.8 N 33 43 18 23 1011.1 1011.3 0.2
05/10:30am 13.6 7.4 12.5 93 0.6 N 37 52 20 28 1011.1 1011.3 0.2
05/10:20am 13.1 7.5 12.0 93 0.6 N 33 43 18 23 1011.1 1011.3 0.2
05/10:00am 13.1 7.7 12.3 95 0.4 N 32 43 17 23 1011.3 1011.5 0.2
05/09:30am 13.2 7.8 12.3 94 0.5 N 32 43 17 23 1011.2 1011.4 0.0
05/09:00am 12.8 8.1 11.9 94 0.5 NNW 28 37 15 20 1011.5 1011.8 5.4
05/08:49am 13.0 7.8 11.7 92 0.7 NNW 30 39 16 21 1011.5 1011.8 5.0
05/08:30am 13.0 6.9 11.9 93 0.6 NNW 35 46 19 25 1011.2 1011.4 5.0
05/08:07am 12.8 7.2 11.5 92 0.7 NNW 32 41 17 22 1011.2 1011.4 4.8
05/08:00am 12.8 7.3 11.7 93 0.6 NNW 32 41 17 22 1011.1 1011.3 4.8
05/07:30am 12.5 6.9 11.6 94 0.5 NNW 32 39 17 21 1011.0 1011.2 4.8
05/07:00am 12.5 6.9 11.4 93 0.6 NNW 32 43 17 23 1010.7 1010.9 4.6
05/06:41am 12.5 6.2 11.2 92 0.7 NNW 35 46 19 25 1010.5 1010.7 4.4
05/06:30am 12.3 6.0 11.0 92 0.7 NNW 35 44 19 24 1010.3 1010.5 4.4
05/06:08am 12.4 5.7 11.1 92 0.7 NNW 37 50 20 27 1010.3 1010.5 4.4
05/06:00am 12.5 5.8 11.1 91 0.7 NNW 37 46 20 25 1010.2 1010.4 4.4
05/05:57am 12.5 6.2 11.1 91 0.7 NNW 35 46 19 25 1010.2 1010.4 4.4
05/05:30am 12.3 6.6 11.0 92 0.7 NNW 32 43 17 23 1010.1 1010.3 4.0
05/05:15am 12.4 5.6 10.8 90 0.8 NNW 37 48 20 26 1009.9 1010.1 3.8
05/05:00am 12.4 6.0 10.6 89 0.9 NNW 35 44 19 24 1009.8 1010.0 3.4
05/04:30am 12.5 6.5 10.7 89 0.9 NNW 33 48 18 26 1010.0 1010.2 3.4
05/04:26am 12.4 6.6 10.8 90 0.8 NNW 32 41 17 22 1009.9 1010.1 3.4
05/04:17am 12.2 6.4 10.8 91 0.7 NNW 32 39 17 21 1009.8 1010.0 3.2
05/04:00am 12.2 7.1 10.6 90 0.8 NW 28 33 15 18 1009.9 1010.1 3.0
05/03:54am 12.2 7.5 10.6 90 0.8 NW 26 35 14 19 1009.9 1010.1 2.8
05/03:53am 12.2 7.4 10.4 89 0.9 NW 26 35 14 19 1009.9 1010.1 2.8
05/03:30am 12.3 7.1 10.4 88 1.0 NNW 28 37 15 20 1009.9 1010.1 2.4
05/03:23am 12.5 6.6 10.4 87 1.1 NNW 32 39 17 21 1009.8 1010.0 2.2
05/03:12am 12.3 6.7 10.2 87 1.1 NNW 30 41 16 22 1009.8 1010.0 2.2
05/03:00am 12.4 7.2 10.3 87 1.1 NNW 28 37 15 20 1009.8 1010.0 2.2
05/02:30am 11.8 7.0 10.4 91 0.7 NNW 26 35 14 19 1009.8 1010.0 2.0
05/02:00am 11.9 6.0 10.3 90 0.8 NNW 32 43 17 23 1009.8 1010.0 2.0
05/01:30am 11.7 6.0 9.9 89 0.9 NW 30 39 16 21 1010.1 1010.3 1.8
05/01:00am 11.8 5.7 9.7 87 1.1 NW 32 43 17 23 1010.3 1010.5 1.6
05/12:34am 12.0 5.9 9.9 87 1.1 NNW 32 54 17 29 1010.2 1010.4 1.4
05/12:30am 11.7 6.5 10.1 90 0.8 NNW 28 39 15 21 1010.2 1010.4 1.4
05/12:00am 11.3 6.3 9.7 90 0.8 NNW 26 35 14 19 1010.2 1010.4 1.4
 
Date/Time
EST
Temp
°C
App
Temp
°C
Dew
Point
Rel
Hum
%
Delta-T
°C
Wind Press
QNH
hPa
Press
MSL
hPa
Rain
since 9 am
mm
Dir
 
Spd
km/h
Gust
km/h
Spd
kts
Gust
kts
04/11:43pm 11.2 5.8 9.5 89 0.9 NNW 28 37 15 20 1010.3 1010.5 1.4
04/11:30pm 11.2 5.4 9.3 88 1.0 NNW 30 39 16 21 1010.4 1010.6 1.4
04/11:11pm 11.2 6.7 10.0 92 0.6 NNW 24 33 13 18 1010.6 1010.8 1.2
04/11:07pm 11.2 6.7 10.1 93 0.6 NNW 24 30 13 16 1010.5 1010.7 1.2
04/11:00pm 11.1 6.6 10.0 93 0.6 NNW 24 30 13 16 1010.5 1010.7 1.2
04/10:54pm 11.0 6.5 9.9 93 0.6 NNW 24 30 13 16 1010.6 1010.8 1.2
04/10:44pm 10.9 6.3 9.7 92 0.6 NNW 24 35 13 19 1010.6 1010.8 1.2
04/10:30pm 10.8 5.8 9.4 91 0.7 NNW 26 37 14 20 1010.8 1011.0 1.0
04/10:28pm 10.8 5.7 9.2 90 0.8 NNW 26 37 14 20 1010.8 1011.0 1.0
04/10:23pm 10.9 5.7 9.0 88 1.0 NNW 26 39 14 21 1010.8 1011.0 1.0
04/10:00pm 10.8 5.4 9.4 91 0.7 NNW 28 35 15 19 1010.6 1010.8 0.8
04/09:49pm 10.7 4.5 9.3 91 0.7 N 32 39 17 21 1010.5 1010.7 0.8
04/09:30pm 10.7 4.5 9.5 92 0.6 NNW 32 43 17 23 1011.0 1011.2 0.8
04/09:29pm 10.7 4.5 9.5 92 0.6 NNW 32 43 17 23 1010.9 1011.1 0.8
04/09:27pm 10.7 4.5 9.5 92 0.6 NNW 32 43 17 23 1010.9 1011.1 0.8
04/09:22pm 10.6 4.4 9.4 92 0.6 NNW 32 41 17 22 1010.8 1011.0 0.8
04/09:12pm 10.7 5.2 9.3 91 0.7 NNW 28 37 15 20 1010.7 1010.9 0.8
04/09:09pm 10.8 5.7 9.2 90 0.8 NNW 26 35 14 19 1010.8 1011.0 0.6
04/09:00pm 10.7 4.8 9.0 89 0.9 NNW 30 41 16 22 1010.5 1010.7 0.6
04/08:30pm 10.4 3.9 8.3 87 1.0 NNW 32 41 17 22 1010.5 1010.7 0.6
04/08:00pm 9.9 3.4 8.2 89 0.8 NNW 32 41 17 22 1010.6 1010.8 0.6
04/07:30pm 10.1 3.8 9.0 93 0.5 NNW 32 50 17 27 1010.2 1010.4 0.4
04/07:00pm 9.7 3.2 8.1 90 0.8 NNW 32 43 17 23 1010.3 1010.5 0.0
04/06:30pm 10.1 4.2 7.3 83 1.3 NNW 28 35 15 19 1010.0 1010.2 0.0
04/06:00pm 9.8 2.9 6.5 80 1.6 NNW 32 39 17 21 1009.8 1010.0 0.0
04/05:30pm 10.3 3.8 6.5 77 1.8 NNW 30 43 16 23 1009.5 1009.7 0.0
04/05:00pm 10.6 4.5 6.4 75 2.0 NNW 28 39 15 21 1009.3 1009.5 0.0
04/04:30pm 11.1 3.9 6.0 71 2.4 NNW 33 46 18 25 1009.1 1009.3 0.0
04/04:00pm 12.0 6.2 6.1 67 2.8 NNW 26 35 14 19 1009.0 1009.2 0.0
04/03:30pm 12.6 5.5 6.2 65 3.1 NNW 33 43 18 23 1008.9 1009.1 0.0
04/03:00pm 12.1 4.4 5.5 64 3.1 NNW 35 48 19 26 1008.6 1008.8 0.0
04/02:30pm 12.6 5.5 5.5 62 3.3 NNW 32 41 17 22 1008.5 1008.7 0.0
04/02:00pm 12.3 5.4 4.5 59 3.6 NNW 30 44 16 24 1008.6 1008.8 0.0
04/01:30pm 13.0 4.7 4.2 55 4.0 NW 37 59 20 32 1008.8 1009.0 0.0
04/01:25pm 13.0 5.4 3.9 54 4.1 NW 33 59 18 32 1008.7 1008.9 0.0
04/01:00pm 13.3 6.9 5.2 58 3.8 NW 28 41 15 22 1008.8 1009.0 0.0
04/12:30pm 11.9 4.9 4.2 59 3.5 NW 30 39 16 21 1009.0 1009.2 0.0
04/12:00pm 12.2 4.8 3.9 57 3.8 NNW 32 43 17 23 1009.1 1009.3 0.0
04/11:30am 11.2 4.5 3.5 59 3.4 NNW 28 37 15 20 1009.2 1009.4 0.0
04/11:00am 11.1 4.5 4.1 62 3.2 NW 28 35 15 19 1009.2 1009.4 0.0
04/10:30am 10.7 3.7 4.2 64 2.9 NNW 30 35 16 19 1009.0 1009.2 0.0
04/10:00am 9.9 3.7 4.5 69 2.4 NNW 26 37 14 20 1008.8 1009.0 0.0
04/09:30am 9.6 3.4 4.2 69 2.4 NNW 26 32 14 17 1008.8 1009.0 0.0
04/09:00am 8.2 2.3 3.7 73 2.0 NNW 24 30 13 16 1008.5 1008.7 8.8
04/08:30am 7.2 1.2 3.3 76 1.7 NNW 24 30 13 16 1008.2 1008.4 8.8
04/08:00am 6.1 0.8 2.9 80 1.3 NNW 20 24 11 13 1008.0 1008.2 8.8
04/07:30am 5.0 -1.1 2.5 84 1.0 NNW 24 28 13 15 1007.4 1007.6 8.8
04/07:00am 4.4 -1.8 2.1 85 0.9 NW 24 30 13 16 1006.6 1006.8 8.8
04/06:30am 4.2 -2.0 1.9 85 0.9 NNW 24 28 13 15 1005.9 1006.0 8.8
04/06:00am 4.5 -1.3 2.4 86 0.9 NNW 22 26 12 14 1005.9 1006.0 8.8
04/05:30am 3.8 -1.5 2.0 88 0.7 NNW 19 24 10 13 1004.9 1005.1 8.8
04/05:00am 4.1 -1.4 1.8 85 0.9 NNW 20 24 11 13 1004.5 1004.7 8.8
04/04:30am 4.5 -1.0 1.7 82 1.1 NNW 20 26 11 14 1003.9 1004.1 8.8
04/04:00am 4.5 -0.9 2.4 86 0.9 N 20 24 11 13 1003.4 1003.6 8.8
04/03:30am 4.0 -0.2 1.5 84 1.0 NNW 13 15 7 8 1003.1 1003.3 8.8
04/03:00am 5.1 0.0 3.0 86 0.9 N 19 22 10 12 1002.4 1002.6 8.8
04/02:30am 4.9 -0.4 2.8 86 0.9 NNW 20 26 11 14 1002.0 1002.2 8.8
04/02:00am 4.2 -0.7 2.1 86 0.8 N 17 20 9 11 1001.6 1001.8 8.8
04/01:30am 5.4 0.0 2.6 82 1.2 N 20 28 11 15 1001.0 1001.1 8.8
04/01:00am 5.8 -0.7 2.8 81 1.3 N 26 32 14 17 1000.2 1000.3 8.8
04/12:30am 5.6 -0.5 2.9 83 1.1 NNW 24 30 13 16 1000.3 1000.4 8.8
04/12:00am 5.1 -0.1 2.5 83 1.1 NNW 19 26 10 14 1000.1 1000.2 8.8
 
Date/Time
EST
Temp
°C
App
Temp
°C
Dew
Point
Rel
Hum
%
Delta-T
°C
Wind Press
QNH
hPa
Press
MSL
hPa
Rain
since 9 am
mm
Dir
 
Spd
km/h
Gust
km/h
Spd
kts
Gust
kts
03/11:30pm 4.7 -0.6 2.1 83 1.1 NNW 19 22 10 12 999.7 999.8 8.8
03/11:00pm 5.6 0.5 2.9 83 1.1 NNW 19 22 10 12 999.3 999.5 8.8
03/10:30pm 5.7 0.6 3.2 84 1.0 N 19 22 10 12 999.3 999.5 8.8
03/10:00pm 5.4 0.3 2.8 83 1.1 N 19 22 10 12 999.3 999.5 8.8
03/09:30pm 5.8 0.3 2.1 77 1.5 NW 20 28 11 15 998.8 999.0 8.8
03/09:00pm 6.7 1.0 2.6 75 1.7 NW 22 30 12 16 998.4 998.6 8.8
03/08:30pm 6.5 1.2 3.1 79 1.4 NW 20 28 11 15 997.8 998.0 8.8
03/08:00pm 6.5 1.0 3.8 83 1.2 NNW 22 28 12 15 996.8 997.0 8.8
03/07:30pm 6.7 1.3 4.4 85 1.0 NNW 22 28 12 15 996.3 996.4 8.8
03/07:00pm 7.1 1.3 4.6 84 1.1 NNW 24 32 13 17 995.8 995.9 8.8
03/06:30pm 7.9 1.7 6.0 88 0.9 NNW 28 39 15 21 995.0 995.1 8.8
03/06:00pm 8.0 2.6 6.5 90 0.7 NNW 24 32 13 17 993.7 993.8 8.8
03/05:30pm 8.7 3.4 7.0 89 0.8 N 24 33 13 18 992.9 993.1 8.8
03/05:00pm 9.1 4.0 7.5 90 0.8 NNW 24 30 13 16 992.5 992.7 8.8
03/04:30pm 9.6 4.1 7.4 86 1.1 NNW 26 33 14 18 992.0 992.2 8.6
03/04:00pm 9.9 4.0 7.3 84 1.3 NNW 28 39 15 21 991.3 991.4 8.4
03/03:30pm 10.6 5.2 8.2 85 1.2 NNW 26 32 14 17 990.4 990.5 8.2
03/03:00pm 11.2 5.1 8.4 83 1.4 NNW 30 46 16 25 990.0 990.1 7.8
03/02:30pm 11.9 6.3 8.6 80 1.7 NNW 28 41 15 22 989.6 989.7 7.8
03/02:00pm 11.6 4.9 8.1 79 1.7 NNW 33 46 18 25 990.2 990.3 7.8
03/01:30pm 12.2 5.6 9.9 86 1.2 NNW 35 46 19 25 990.4 990.5 7.8
03/01:00pm 12.2 6.4 10.9 92 0.7 N 32 39 17 21 990.3 990.4 7.8
03/12:30pm 12.3 6.6 11.0 92 0.7 N 32 43 17 23 990.2 990.3 7.8
03/12:00pm 13.0 6.3 11.1 88 1.0 NNW 37 59 20 32 989.9 990.0 7.6
03/11:48am 12.6 3.9 10.1 85 1.3 NW 46 65 25 35 990.3 990.4 7.4
03/11:43am 12.9 5.2 10.3 84 1.4 NW 41 65 22 35 990.2 990.3 7.2
03/11:42am 12.8 5.5 10.3 85 1.3 NW 39 56 21 30 990.2 990.3 7.2
03/11:34am 12.9 5.5 11.1 89 1.0 WNW 41 59 22 32 989.9 990.0 6.6
03/11:30am 12.4 4.5 10.8 90 0.8 WNW 43 59 23 32 990.0 990.1 6.4
03/11:24am 13.3 4.7 11.7 90 0.9 NW 48 69 26 37 990.0 990.1 4.4
03/11:19am 13.5 5.3 11.7 89 1.0 NW 46 69 25 37 989.4 989.5 4.2
03/11:16am 13.3 5.1 11.7 90 0.9 NNW 46 63 25 34 989.3 989.4 4.2
03/11:04am 13.0 5.2 11.7 92 0.7 NNW 44 82 24 44 989.3 989.4 4.0
03/11:00am 13.1 5.4 12.0 93 0.6 NNW 44 56 24 30 989.5 989.6 4.0
03/10:53am 13.0 5.9 12.1 94 0.5 NNW 41 54 22 29 989.5 989.6 3.6
03/10:30am 12.7 5.0 12.1 96 0.3 NNW 44 61 24 33 989.5 989.6 2.4
03/10:25am 12.6 5.1 12.0 96 0.3 NNW 43 61 23 33 989.6 989.7 2.0
03/10:00am 12.4 5.6 11.8 96 0.3 NNW 39 50 21 27 990.1 990.2 1.2
03/09:30am 12.1 5.9 11.5 96 0.3 NNW 35 44 19 24 990.9 991.0 0.8
03/09:00am 11.9 7.4 11.3 96 0.3 NNW 26 37 14 20 991.2 991.3 14.4
03/08:30am 11.9 6.2 11.1 95 0.4 NNW 32 43 17 23 991.8 992.0 12.6
03/08:00am 11.8 5.7 10.5 92 0.7 N 33 43 18 23 992.1 992.3 12.0
03/07:59am 11.9 5.8 10.6 92 0.7 N 33 50 18 27 992.1 992.3 11.8
03/07:45am 12.3 5.5 10.5 89 0.9 NNW 37 48 20 26 992.1 992.3 11.6
03/07:30am 12.8 5.8 11.2 90 0.8 NNW 39 48 21 26 991.9 992.1 11.4
03/07:25am 13.1 5.3 11.3 89 1.0 NW 43 59 23 32 991.8 992.0 11.2
03/07:00am 13.4 4.4 11.6 89 1.0 NNW 50 74 27 40 991.2 991.3 9.6
03/06:46am 13.4 5.1 11.5 88 1.0 NNW 46 69 25 37 990.8 990.9 9.2
03/06:41am 13.4 4.4 11.5 88 1.0 NNW 50 69 27 37 990.7 990.8 8.8
03/06:35am 13.3 3.5 11.4 88 1.0 NNW 54 78 29 42 990.8 990.9 8.6
03/06:30am 13.3 2.9 11.2 87 1.1 NNW 57 78 31 42 991.0 991.1 8.6
03/06:00am 13.4 2.9 11.1 86 1.2 NNW 57 82 31 44 991.5 991.7 7.8
03/05:30am 13.3 5.2 10.8 85 1.3 NNW 44 65 24 35 991.9 992.1 7.4
03/05:00am 13.1 3.8 10.5 84 1.4 NNW 50 69 27 37 992.0 992.2 6.8
03/04:30am 13.0 3.7 10.4 84 1.4 N 50 70 27 38 992.5 992.7 6.2
03/04:22am 13.0 2.9 10.4 84 1.4 NNW 54 76 29 41 992.7 992.9 5.8
03/04:00am 13.6 3.4 10.0 79 1.9 NNW 54 76 29 41 993.1 993.3 5.8
03/03:37am 13.5 2.3 9.7 78 2.0 NNW 59 83 32 45 993.4 993.5 5.8
03/03:30am 13.7 2.8 9.6 76 2.1 NNW 57 80 31 43 993.5 993.6 5.8
03/03:20am 13.6 2.7 9.5 76 2.1 NNW 57 80 31 43 993.7 993.8 5.8
03/03:00am 13.4 2.1 9.6 78 2.0 NNW 59 83 32 45 993.9 994.0 5.8
03/02:57am 13.3 2.6 9.5 78 2.0 NNW 56 83 30 45 994.0 994.1 5.8
03/02:36am 13.9 2.9 9.1 73 2.5 NNW 57 76 31 41 994.1 994.2 5.8
03/02:30am 13.8 2.9 9.5 75 2.2 N 57 74 31 40 994.0 994.1 5.8
03/02:00am 13.5 3.2 9.7 78 2.0 NNW 54 74 29 40 994.5 994.6 5.8
03/01:30am 13.2 2.9 9.8 80 1.8 NNW 54 74 29 40 995.2 995.3 5.8
03/01:00am 13.6 3.6 9.5 76 2.1 NNW 52 74 28 40 995.8 995.9 5.6
03/12:30am 13.4 3.4 9.5 77 2.0 NNW 52 70 28 38 996.4 996.5 5.6
03/12:00am 13.2 4.0 9.6 79 1.9 NNW 48 78 26 42 997.0 997.2 5.2
 
Date/Time
EST
Temp
°C
App
Temp
°C
Dew
Point
Rel
Hum
%
Delta-T
°C
Wind Press
QNH
hPa
Press
MSL
hPa
Rain
since 9 am
mm
Dir
 
Spd
km/h
Gust
km/h
Spd
kts
Gust
kts
02/11:30pm 13.4 2.7 9.5 77 2.0 NNW 56 76 30 41 997.2 997.4 5.0
02/11:10pm 12.8 2.8 9.4 80 1.7 NNW 52 72 28 39 997.2 997.4 5.0
02/11:00pm 12.8 3.2 9.4 80 1.8 NNW 50 65 27 35 997.4 997.6 4.8
02/10:50pm 12.5 3.0 9.7 83 1.4 NNW 50 67 27 36 997.7 997.9 4.8
02/10:38pm 12.4 2.1 9.8 84 1.3 NNW 54 72 29 39 997.7 997.9 4.8
02/10:30pm 12.4 1.8 10.0 85 1.2 NNW 56 72 30 39 998.2 998.4 4.6
02/10:16pm 13.0 3.1 9.6 80 1.7 NNW 52 70 28 38 998.1 998.3 4.4
02/10:01pm 13.6 4.8 9.5 76 2.1 NNW 46 65 25 35 998.2 998.4 4.2
02/10:00pm 13.6 4.8 9.5 76 2.1 NNW 46 61 25 33 998.3 998.5 4.2
02/09:30pm 13.6 4.7 9.3 75 2.2 NNW 46 67 25 36 998.8 999.0 4.2
02/09:23pm 13.2 5.0 9.8 80 1.8 NNW 43 57 23 31 999.1 999.3 4.2
02/09:07pm 12.9 4.1 9.7 81 1.6 NNW 46 65 25 35 999.3 999.5 3.8
02/09:00pm 13.3 5.8 9.5 78 2.0 NNW 39 59 21 32 999.3 999.5 3.4
02/08:35pm 12.7 5.7 9.9 83 1.4 NNW 37 56 20 30 999.5 999.6 3.4
02/08:30pm 12.7 5.4 10.1 84 1.3 N 39 54 21 29 999.7 999.8 3.4
02/08:00pm 12.1 2.2 9.8 86 1.2 NNW 52 72 28 39 999.8 999.9 3.4
02/07:41pm 12.8 3.6 9.6 81 1.6 NNW 48 83 26 45 999.8 999.9 3.4
02/07:34pm 12.7 4.4 9.3 80 1.7 NNW 43 61 23 33 999.8 999.9 3.2
02/07:30pm 12.6 4.7 9.2 80 1.7 NNW 41 57 22 31 999.8 999.9 3.2
02/07:00pm 12.4 4.9 9.6 83 1.4 NNW 39 59 21 32 1000.4 1000.5 3.0
02/06:53pm 12.3 5.6 9.5 83 1.4 NNW 35 54 19 29 1000.4 1000.5 3.0
02/06:30pm 12.2 5.4 9.4 83 1.4 NNW 35 52 19 28 1000.7 1000.8 2.6
02/06:28pm 12.1 5.7 9.3 83 1.4 NNW 33 52 18 28 1000.7 1000.8 2.6
02/06:00pm 11.8 5.1 9.7 87 1.1 N 35 44 19 24 1000.9 1001.0 2.4
02/05:53pm 11.9 5.2 9.8 87 1.1 N 35 48 19 26 1000.9 1001.0 2.4
02/05:30pm 11.8 4.1 10.0 89 0.9 NNW 41 56 22 30 1001.0 1001.1 2.4
02/05:13pm 11.7 4.3 9.9 89 0.9 NNW 39 52 21 28 1001.1 1001.2 2.4
02/05:00pm 11.9 5.7 10.0 88 1.0 NNW 33 48 18 26 1001.2 1001.3 2.4

Other Formats:

Comma delimited format used in spreadsheet applications
http://www.bom.gov.au/fwo/IDT60801/IDT60801.95966.axf

JavaScript Object Notation format (JSON) in row-major order
http://www.bom.gov.au/fwo/IDT60801/IDT60801.95966.json